sensor_id;sensor_type;location;lat;lon;timestamp;temperature;humidity
9414;DHT22;4746;35.664;139.738;2023-05-24T00:00:13;17.50;99.90
9414;DHT22;4746;35.664;139.738;2023-05-24T00:02:41;17.60;99.90
9414;DHT22;4746;35.664;139.738;2023-05-24T00:05:10;17.60;99.90
9414;DHT22;4746;35.664;139.738;2023-05-24T00:07:39;17.60;99.90
9414;DHT22;4746;35.664;139.738;2023-05-24T00:10:08;17.60;99.90
9414;DHT22;4746;35.664;139.738;2023-05-24T00:12:37;17.60;99.90
9414;DHT22;4746;35.664;139.738;2023-05-24T00:15:05;17.60;99.90
9414;DHT22;4746;35.664;139.738;2023-05-24T00:17:33;17.70;99.90
9414;DHT22;4746;35.664;139.738;2023-05-24T00:20:08;17.70;99.90
9414;DHT22;4746;35.664;139.738;2023-05-24T00:22:37;17.70;99.90
9414;DHT22;4746;35.664;139.738;2023-05-24T00:25:06;17.80;99.90
9414;DHT22;4746;35.664;139.738;2023-05-24T00:27:36;17.80;99.10
9414;DHT22;4746;35.664;139.738;2023-05-24T00:30:04;17.90;99.90
9414;DHT22;4746;35.664;139.738;2023-05-24T00:32:34;18.00;99.70
9414;DHT22;4746;35.664;139.738;2023-05-24T00:35:02;18.00;99.40
9414;DHT22;4746;35.664;139.738;2023-05-24T00:37:29;18.00;99.90
9414;DHT22;4746;35.664;139.738;2023-05-24T00:39:57;18.10;99.90
9414;DHT22;4746;35.664;139.738;2023-05-24T00:42:24;18.20;99.90
9414;DHT22;4746;35.664;139.738;2023-05-24T00:44:52;18.30;99.90
9414;DHT22;4746;35.664;139.738;2023-05-24T00:47:20;18.40;99.90
9414;DHT22;4746;35.664;139.738;2023-05-24T00:49:48;18.40;99.90
9414;DHT22;4746;35.664;139.738;2023-05-24T00:52:16;18.40;98.00
9414;DHT22;4746;35.664;139.738;2023-05-24T00:54:44;18.40;99.90
9414;DHT22;4746;35.664;139.738;2023-05-24T00:57:12;18.50;98.80
9414;DHT22;4746;35.664;139.738;2023-05-24T00:59:40;18.50;97.90
9414;DHT22;4746;35.664;139.738;2023-05-24T01:02:08;18.50;96.80
9414;DHT22;4746;35.664;139.738;2023-05-24T01:04:36;18.50;99.00
9414;DHT22;4746;35.664;139.738;2023-05-24T01:10:16;18.60;99.90
9414;DHT22;4746;35.664;139.738;2023-05-24T01:13:15;18.60;99.90
9414;DHT22;4746;35.664;139.738;2023-05-24T01:16:38;18.70;99.40
9414;DHT22;4746;35.664;139.738;2023-05-24T01:19:38;18.80;99.90
9414;DHT22;4746;35.664;139.738;2023-05-24T01:28:24;18.80;98.20
9414;DHT22;4746;35.664;139.738;2023-05-24T01:30:54;18.90;99.90
9414;DHT22;4746;35.664;139.738;2023-05-24T01:33:22;18.90;98.90
9414;DHT22;4746;35.664;139.738;2023-05-24T01:35:50;19.00;99.90
9414;DHT22;4746;35.664;139.738;2023-05-24T01:38:17;19.00;99.90
9414;DHT22;4746;35.664;139.738;2023-05-24T01:40:46;19.10;99.90
9414;DHT22;4746;35.664;139.738;2023-05-24T01:46:24;19.20;98.50
9414;DHT22;4746;35.664;139.738;2023-05-24T01:52:01;19.30;94.20
9414;DHT22;4746;35.664;139.738;2023-05-24T01:54:35;19.40;94.40
9414;DHT22;4746;35.664;139.738;2023-05-24T01:57:06;19.40;90.80
9414;DHT22;4746;35.664;139.738;2023-05-24T01:59:40;19.40;90.10
9414;DHT22;4746;35.664;139.738;2023-05-24T02:02:10;19.40;82.70
9414;DHT22;4746;35.664;139.738;2023-05-24T02:04:41;19.40;75.20
9414;DHT22;4746;35.664;139.738;2023-05-24T02:07:08;19.40;75.80
9414;DHT22;4746;35.664;139.738;2023-05-24T02:09:36;19.50;76.50
9414;DHT22;4746;35.664;139.738;2023-05-24T02:12:05;19.60;71.40
9414;DHT22;4746;35.664;139.738;2023-05-24T02:14:33;19.60;69.00
9414;DHT22;4746;35.664;139.738;2023-05-24T02:17:03;19.60;64.10
9414;DHT22;4746;35.664;139.738;2023-05-24T02:19:31;19.70;63.80
9414;DHT22;4746;35.664;139.738;2023-05-24T02:22:02;19.70;62.90
9414;DHT22;4746;35.664;139.738;2023-05-24T02:24:29;19.80;64.20
9414;DHT22;4746;35.664;139.738;2023-05-24T02:26:57;19.80;62.80
9414;DHT22;4746;35.664;139.738;2023-05-24T02:29:24;19.90;64.50
9414;DHT22;4746;35.664;139.738;2023-05-24T02:31:52;20.00;60.60
9414;DHT22;4746;35.664;139.738;2023-05-24T02:34:22;20.00;59.40
9414;DHT22;4746;35.664;139.738;2023-05-24T02:36:50;20.10;60.20
9414;DHT22;4746;35.664;139.738;2023-05-24T02:39:19;20.20;60.50
9414;DHT22;4746;35.664;139.738;2023-05-24T02:41:47;20.20;58.00
9414;DHT22;4746;35.664;139.738;2023-05-24T02:44:14;20.20;57.50
9414;DHT22;4746;35.664;139.738;2023-05-24T02:46:42;20.30;58.20
9414;DHT22;4746;35.664;139.738;2023-05-24T02:49:09;20.40;57.50
9414;DHT22;4746;35.664;139.738;2023-05-24T02:51:37;20.40;56.60
9414;DHT22;4746;35.664;139.738;2023-05-24T02:54:04;20.40;55.70
9414;DHT22;4746;35.664;139.738;2023-05-24T02:56:32;20.40;55.70
9414;DHT22;4746;35.664;139.738;2023-05-24T02:59:00;20.50;56.80
9414;DHT22;4746;35.664;139.738;2023-05-24T03:01:28;20.60;55.70
9414;DHT22;4746;35.664;139.738;2023-05-24T03:03:55;20.70;55.80
9414;DHT22;4746;35.664;139.738;2023-05-24T03:06:23;20.70;54.00
9414;DHT22;4746;35.664;139.738;2023-05-24T03:08:50;20.70;53.70
9414;DHT22;4746;35.664;139.738;2023-05-24T03:11:18;20.70;54.40
9414;DHT22;4746;35.664;139.738;2023-05-24T03:13:47;20.70;55.00
9414;DHT22;4746;35.664;139.738;2023-05-24T03:16:15;20.70;56.70
9414;DHT22;4746;35.664;139.738;2023-05-24T03:18:42;20.80;56.30
9414;DHT22;4746;35.664;139.738;2023-05-24T03:21:10;20.80;55.00
9414;DHT22;4746;35.664;139.738;2023-05-24T03:23:38;20.90;54.90
9414;DHT22;4746;35.664;139.738;2023-05-24T03:26:05;21.10;55.10
9414;DHT22;4746;35.664;139.738;2023-05-24T03:28:33;21.10;55.60
9414;DHT22;4746;35.664;139.738;2023-05-24T03:31:00;21.20;55.70
9414;DHT22;4746;35.664;139.738;2023-05-24T03:33:28;21.30;53.30
9414;DHT22;4746;35.664;139.738;2023-05-24T03:35:57;21.30;51.20
9414;DHT22;4746;35.664;139.738;2023-05-24T03:38:25;21.40;51.40
9414;DHT22;4746;35.664;139.738;2023-05-24T03:40:53;21.40;51.60
9414;DHT22;4746;35.664;139.738;2023-05-24T03:43:20;21.50;52.50
9414;DHT22;4746;35.664;139.738;2023-05-24T03:45:48;21.70;53.30
9414;DHT22;4746;35.664;139.738;2023-05-24T03:48:16;21.80;53.00
9414;DHT22;4746;35.664;139.738;2023-05-24T03:50:46;21.90;53.40
9414;DHT22;4746;35.664;139.738;2023-05-24T03:53:14;21.90;53.20
9414;DHT22;4746;35.664;139.738;2023-05-24T03:55:41;22.00;53.90
9414;DHT22;4746;35.664;139.738;2023-05-24T03:58:09;22.10;52.60
9414;DHT22;4746;35.664;139.738;2023-05-24T04:00:37;22.10;50.50
9414;DHT22;4746;35.664;139.738;2023-05-24T04:03:05;22.20;52.00
9414;DHT22;4746;35.664;139.738;2023-05-24T04:05:34;22.20;52.20
9414;DHT22;4746;35.664;139.738;2023-05-24T04:08:01;22.20;52.50
9414;DHT22;4746;35.664;139.738;2023-05-24T04:10:29;22.30;51.40
9414;DHT22;4746;35.664;139.738;2023-05-24T04:12:56;22.40;50.30
9414;DHT22;4746;35.664;139.738;2023-05-24T04:15:25;22.40;50.90
9414;DHT22;4746;35.664;139.738;2023-05-24T04:17:53;22.50;51.00
9414;DHT22;4746;35.664;139.738;2023-05-24T04:20:21;22.50;50.10
9414;DHT22;4746;35.664;139.738;2023-05-24T04:22:53;22.40;51.40
9414;DHT22;4746;35.664;139.738;2023-05-24T04:25:21;22.50;53.20
9414;DHT22;4746;35.664;139.738;2023-05-24T04:27:49;22.60;53.70
9414;DHT22;4746;35.664;139.738;2023-05-24T04:30:17;22.70;52.90
9414;DHT22;4746;35.664;139.738;2023-05-24T04:32:44;22.90;52.90
9414;DHT22;4746;35.664;139.738;2023-05-24T04:35:12;23.00;52.30
9414;DHT22;4746;35.664;139.738;2023-05-24T04:37:40;23.10;52.40
9414;DHT22;4746;35.664;139.738;2023-05-24T04:40:11;23.20;52.00
9414;DHT22;4746;35.664;139.738;2023-05-24T04:42:38;23.30;50.70
9414;DHT22;4746;35.664;139.738;2023-05-24T04:45:08;23.30;50.30
9414;DHT22;4746;35.664;139.738;2023-05-24T04:47:36;23.40;50.60
9414;DHT22;4746;35.664;139.738;2023-05-24T04:50:04;23.50;50.00
9414;DHT22;4746;35.664;139.738;2023-05-24T04:52:32;23.40;48.30
9414;DHT22;4746;35.664;139.738;2023-05-24T04:55:02;23.30;47.50
9414;DHT22;4746;35.664;139.738;2023-05-24T04:57:30;23.30;46.90
9414;DHT22;4746;35.664;139.738;2023-05-24T04:59:58;23.20;46.20
9414;DHT22;4746;35.664;139.738;2023-05-24T05:02:25;23.10;45.60
9414;DHT22;4746;35.664;139.738;2023-05-24T05:04:53;23.10;45.50
9414;DHT22;4746;35.664;139.738;2023-05-24T05:07:20;23.10;45.80
9414;DHT22;4746;35.664;139.738;2023-05-24T05:09:48;23.20;46.30
9414;DHT22;4746;35.664;139.738;2023-05-24T05:12:15;23.30;45.10
9414;DHT22;4746;35.664;139.738;2023-05-24T05:14:43;23.50;43.60
9414;DHT22;4746;35.664;139.738;2023-05-24T05:17:10;23.50;42.60
9414;DHT22;4746;35.664;139.738;2023-05-24T05:19:38;23.60;41.70
9414;DHT22;4746;35.664;139.738;2023-05-24T05:22:06;23.80;41.00
9414;DHT22;4746;35.664;139.738;2023-05-24T05:24:33;23.80;38.40
9414;DHT22;4746;35.664;139.738;2023-05-24T05:27:01;23.90;37.90
9414;DHT22;4746;35.664;139.738;2023-05-24T05:29:28;24.00;37.90
9414;DHT22;4746;35.664;139.738;2023-05-24T05:31:56;24.10;37.10
9414;DHT22;4746;35.664;139.738;2023-05-24T05:34:23;24.10;37.30
9414;DHT22;4746;35.664;139.738;2023-05-24T05:36:52;24.20;37.40
9414;DHT22;4746;35.664;139.738;2023-05-24T05:39:19;24.20;36.70
9414;DHT22;4746;35.664;139.738;2023-05-24T05:41:47;24.40;37.90
9414;DHT22;4746;35.664;139.738;2023-05-24T05:44:14;24.40;36.90
9414;DHT22;4746;35.664;139.738;2023-05-24T05:46:42;24.60;36.30
9414;DHT22;4746;35.664;139.738;2023-05-24T05:49:12;24.70;35.10
9414;DHT22;4746;35.664;139.738;2023-05-24T05:51:40;24.80;36.00
9414;DHT22;4746;35.664;139.738;2023-05-24T05:54:08;24.70;34.40
9414;DHT22;4746;35.664;139.738;2023-05-24T05:56:41;24.90;34.30
9414;DHT22;4746;35.664;139.738;2023-05-24T05:59:16;24.90;32.30
9414;DHT22;4746;35.664;139.738;2023-05-24T06:01:44;24.90;31.50
9414;DHT22;4746;35.664;139.738;2023-05-24T06:04:17;24.80;31.60
9414;DHT22;4746;35.664;139.738;2023-05-24T06:06:45;25.10;32.00
9414;DHT22;4746;35.664;139.738;2023-05-24T06:09:15;25.20;31.70
9414;DHT22;4746;35.664;139.738;2023-05-24T06:11:43;25.50;31.70
9414;DHT22;4746;35.664;139.738;2023-05-24T06:14:11;25.70;31.00
9414;DHT22;4746;35.664;139.738;2023-05-24T06:16:44;26.10;30.00
9414;DHT22;4746;35.664;139.738;2023-05-24T06:19:13;26.40;29.70
9414;DHT22;4746;35.664;139.738;2023-05-24T06:21:41;26.60;29.10
9414;DHT22;4746;35.664;139.738;2023-05-24T06:24:14;26.80;28.70
9414;DHT22;4746;35.664;139.738;2023-05-24T06:26:49;26.90;28.70
9414;DHT22;4746;35.664;139.738;2023-05-24T06:29:18;26.80;28.20
9414;DHT22;4746;35.664;139.738;2023-05-24T06:31:47;26.80;27.70
9414;DHT22;4746;35.664;139.738;2023-05-24T06:34:15;27.00;27.70
9414;DHT22;4746;35.664;139.738;2023-05-24T06:36:46;27.50;27.80
9414;DHT22;4746;35.664;139.738;2023-05-24T06:39:16;28.10;28.00
9414;DHT22;4746;35.664;139.738;2023-05-24T06:41:44;28.40;27.50
9414;DHT22;4746;35.664;139.738;2023-05-24T06:44:12;28.80;27.10
9414;DHT22;4746;35.664;139.738;2023-05-24T06:46:41;29.40;26.80
9414;DHT22;4746;35.664;139.738;2023-05-24T06:49:09;29.80;25.50
9414;DHT22;4746;35.664;139.738;2023-05-24T06:51:37;30.00;25.20
9414;DHT22;4746;35.664;139.738;2023-05-24T06:54:05;30.20;24.90
9414;DHT22;4746;35.664;139.738;2023-05-24T06:56:32;30.20;24.10
9414;DHT22;4746;35.664;139.738;2023-05-24T06:59:00;30.70;24.20
9414;DHT22;4746;35.664;139.738;2023-05-24T07:01:28;31.10;23.80
9414;DHT22;4746;35.664;139.738;2023-05-24T07:03:55;31.40;23.20
9414;DHT22;4746;35.664;139.738;2023-05-24T07:06:23;31.60;22.90
9414;DHT22;4746;35.664;139.738;2023-05-24T07:08:50;31.80;22.40
9414;DHT22;4746;35.664;139.738;2023-05-24T07:11:18;32.00;22.50
9414;DHT22;4746;35.664;139.738;2023-05-24T07:13:45;32.50;22.60
9414;DHT22;4746;35.664;139.738;2023-05-24T07:16:13;32.60;22.10
9414;DHT22;4746;35.664;139.738;2023-05-24T07:18:40;33.10;22.10
9414;DHT22;4746;35.664;139.738;2023-05-24T07:21:08;34.00;21.80
9414;DHT22;4746;35.664;139.738;2023-05-24T07:23:36;34.40;21.10
9414;DHT22;4746;35.664;139.738;2023-05-24T07:26:04;34.90;20.50
9414;DHT22;4746;35.664;139.738;2023-05-24T07:28:32;34.60;20.30
9414;DHT22;4746;35.664;139.738;2023-05-24T07:31:03;34.70;20.10
9414;DHT22;4746;35.664;139.738;2023-05-24T07:33:31;34.80;20.00
9414;DHT22;4746;35.664;139.738;2023-05-24T07:35:58;34.90;19.70
9414;DHT22;4746;35.664;139.738;2023-05-24T07:38:26;35.20;19.30
9414;DHT22;4746;35.664;139.738;2023-05-24T07:40:54;35.50;19.20
9414;DHT22;4746;35.664;139.738;2023-05-24T07:43:24;35.60;18.60
9414;DHT22;4746;35.664;139.738;2023-05-24T07:45:52;34.80;18.20
9414;DHT22;4746;35.664;139.738;2023-05-24T07:48:21;34.60;18.30
9414;DHT22;4746;35.664;139.738;2023-05-24T07:50:50;34.50;18.20
9414;DHT22;4746;35.664;139.738;2023-05-24T07:53:18;34.50;18.00
9414;DHT22;4746;35.664;139.738;2023-05-24T07:55:46;35.10;18.40
9414;DHT22;4746;35.664;139.738;2023-05-24T07:58:13;35.50;18.00
9414;DHT22;4746;35.664;139.738;2023-05-24T08:00:41;35.70;17.80
9414;DHT22;4746;35.664;139.738;2023-05-24T08:03:09;35.80;17.50
9414;DHT22;4746;35.664;139.738;2023-05-24T08:05:39;35.30;16.90
9414;DHT22;4746;35.664;139.738;2023-05-24T08:08:07;35.60;17.10
9414;DHT22;4746;35.664;139.738;2023-05-24T08:10:35;35.90;17.10
9414;DHT22;4746;35.664;139.738;2023-05-24T08:13:03;36.10;17.00
9414;DHT22;4746;35.664;139.738;2023-05-24T08:15:30;36.50;17.00
9414;DHT22;4746;35.664;139.738;2023-05-24T08:17:58;36.70;16.80
9414;DHT22;4746;35.664;139.738;2023-05-24T08:20:26;37.00;16.60
9414;DHT22;4746;35.664;139.738;2023-05-24T08:22:53;37.00;16.40
9414;DHT22;4746;35.664;139.738;2023-05-24T08:25:21;36.90;16.20
9414;DHT22;4746;35.664;139.738;2023-05-24T08:27:49;36.10;15.70
9414;DHT22;4746;35.664;139.738;2023-05-24T08:30:17;35.30;15.90
9414;DHT22;4746;35.664;139.738;2023-05-24T08:32:45;34.90;15.80
9414;DHT22;4746;35.664;139.738;2023-05-24T08:35:12;34.80;16.00
9414;DHT22;4746;35.664;139.738;2023-05-24T08:37:40;34.70;16.20
9414;DHT22;4746;35.664;139.738;2023-05-24T08:40:08;34.20;16.20
9414;DHT22;4746;35.664;139.738;2023-05-24T08:42:37;33.70;16.20
9414;DHT22;4746;35.664;139.738;2023-05-24T08:45:15;33.70;16.60
9414;DHT22;4746;35.664;139.738;2023-05-24T08:47:44;33.00;16.30
9414;DHT22;4746;35.664;139.738;2023-05-24T08:50:13;33.00;16.90
9414;DHT22;4746;35.664;139.738;2023-05-24T08:52:41;32.70;17.00
9414;DHT22;4746;35.664;139.738;2023-05-24T08:55:10;32.50;17.20
9414;DHT22;4746;35.664;139.738;2023-05-24T08:57:39;32.30;17.20
9414;DHT22;4746;35.664;139.738;2023-05-24T09:00:09;32.10;17.40
9414;DHT22;4746;35.664;139.738;2023-05-24T09:02:42;31.40;17.50
9414;DHT22;4746;35.664;139.738;2023-05-24T09:05:12;30.40;17.70
9414;DHT22;4746;35.664;139.738;2023-05-24T09:07:48;29.60;18.40
9414;DHT22;4746;35.664;139.738;2023-05-24T09:10:20;28.80;19.50
9414;DHT22;4746;35.664;139.738;2023-05-24T09:12:53;28.10;19.50
9414;DHT22;4746;35.664;139.738;2023-05-24T09:15:23;27.50;20.10
9414;DHT22;4746;35.664;139.738;2023-05-24T09:17:50;27.00;20.70
9414;DHT22;4746;35.664;139.738;2023-05-24T09:20:21;26.50;21.00
9414;DHT22;4746;35.664;139.738;2023-05-24T09:22:51;26.00;21.40
9414;DHT22;4746;35.664;139.738;2023-05-24T09:25:19;25.70;21.90
9414;DHT22;4746;35.664;139.738;2023-05-24T09:27:51;25.20;22.30
9414;DHT22;4746;35.664;139.738;2023-05-24T09:30:19;24.90;22.50
9414;DHT22;4746;35.664;139.738;2023-05-24T09:33:13;24.60;22.80
9414;DHT22;4746;35.664;139.738;2023-05-24T09:35:42;24.30;23.10
9414;DHT22;4746;35.664;139.738;2023-05-24T09:38:17;24.20;23.40
9414;DHT22;4746;35.664;139.738;2023-05-24T09:40:45;24.00;23.50
9414;DHT22;4746;35.664;139.738;2023-05-24T09:43:14;23.70;23.60
9414;DHT22;4746;35.664;139.738;2023-05-24T09:45:42;23.60;23.90
9414;DHT22;4746;35.664;139.738;2023-05-24T09:48:15;23.40;24.00
9414;DHT22;4746;35.664;139.738;2023-05-24T09:50:43;23.30;24.30
9414;DHT22;4746;35.664;139.738;2023-05-24T09:53:22;23.10;24.60
9414;DHT22;4746;35.664;139.738;2023-05-24T09:55:53;23.00;24.80
9414;DHT22;4746;35.664;139.738;2023-05-24T09:58:21;22.90;25.00
9414;DHT22;4746;35.664;139.738;2023-05-24T10:01:06;22.80;25.30
9414;DHT22;4746;35.664;139.738;2023-05-24T10:03:36;22.70;25.50
9414;DHT22;4746;35.664;139.738;2023-05-24T10:06:09;22.60;25.70
9414;DHT22;4746;35.664;139.738;2023-05-24T10:08:39;22.50;25.70
9414;DHT22;4746;35.664;139.738;2023-05-24T10:11:07;22.40;25.90
9414;DHT22;4746;35.664;139.738;2023-05-24T10:13:35;22.40;26.00
9414;DHT22;4746;35.664;139.738;2023-05-24T10:16:03;22.30;26.10
9414;DHT22;4746;35.664;139.738;2023-05-24T10:18:31;22.30;26.10
9414;DHT22;4746;35.664;139.738;2023-05-24T10:21:00;22.20;26.10
9414;DHT22;4746;35.664;139.738;2023-05-24T10:23:34;22.10;26.00
9414;DHT22;4746;35.664;139.738;2023-05-24T10:28:42;22.00;26.60
9414;DHT22;4746;35.664;139.738;2023-05-24T10:31:37;22.00;26.80
9414;DHT22;4746;35.664;139.738;2023-05-24T10:34:06;22.00;27.00
9414;DHT22;4746;35.664;139.738;2023-05-24T10:36:35;21.90;27.00
9414;DHT22;4746;35.664;139.738;2023-05-24T10:39:08;21.80;27.00
9414;DHT22;4746;35.664;139.738;2023-05-24T10:41:39;21.80;27.00
9414;DHT22;4746;35.664;139.738;2023-05-24T10:44:12;21.80;27.20
9414;DHT22;4746;35.664;139.738;2023-05-24T10:47:05;21.80;28.60
9414;DHT22;4746;35.664;139.738;2023-05-24T10:49:46;21.80;30.70
9414;DHT22;4746;35.664;139.738;2023-05-24T10:52:18;21.70;40.70
9414;DHT22;4746;35.664;139.738;2023-05-24T10:55:17;21.70;99.90
9414;DHT22;4746;35.664;139.738;2023-05-24T10:57:45;21.70;99.90
9414;DHT22;4746;35.664;139.738;2023-05-24T11:03:09;21.60;99.90
9414;DHT22;4746;35.664;139.738;2023-05-24T11:08:29;21.40;99.90
9414;DHT22;4746;35.664;139.738;2023-05-24T11:13:40;21.30;99.90
9414;DHT22;4746;35.664;139.738;2023-05-24T11:16:08;21.20;99.90
9414;DHT22;4746;35.664;139.738;2023-05-24T11:18:56;21.20;99.90
9414;DHT22;4746;35.664;139.738;2023-05-24T11:21:23;21.10;99.90
9414;DHT22;4746;35.664;139.738;2023-05-24T11:23:53;21.10;99.90
9414;DHT22;4746;35.664;139.738;2023-05-24T11:26:21;21.00;99.90
9414;DHT22;4746;35.664;139.738;2023-05-24T11:28:49;21.00;99.90
9414;DHT22;4746;35.664;139.738;2023-05-24T11:31:17;20.90;99.90
9414;DHT22;4746;35.664;139.738;2023-05-24T11:33:52;20.90;99.90
9414;DHT22;4746;35.664;139.738;2023-05-24T11:36:20;20.90;99.90
9414;DHT22;4746;35.664;139.738;2023-05-24T11:38:48;20.90;99.90
9414;DHT22;4746;35.664;139.738;2023-05-24T11:41:16;20.80;99.90
9414;DHT22;4746;35.664;139.738;2023-05-24T11:43:46;20.70;99.90
9414;DHT22;4746;35.664;139.738;2023-05-24T11:46:14;20.70;99.90
9414;DHT22;4746;35.664;139.738;2023-05-24T11:48:58;20.70;99.90
9414;DHT22;4746;35.664;139.738;2023-05-24T11:51:27;20.70;99.90
9414;DHT22;4746;35.664;139.738;2023-05-24T11:54:01;20.60;99.90
9414;DHT22;4746;35.664;139.738;2023-05-24T11:56:29;20.50;99.90
9414;DHT22;4746;35.664;139.738;2023-05-24T11:59:21;20.50;99.90
9414;DHT22;4746;35.664;139.738;2023-05-24T12:02:10;20.40;99.90
9414;DHT22;4746;35.664;139.738;2023-05-24T12:04:38;20.40;99.90
9414;DHT22;4746;35.664;139.738;2023-05-24T12:07:10;20.30;99.90
9414;DHT22;4746;35.664;139.738;2023-05-24T12:09:38;20.30;99.90
9414;DHT22;4746;35.664;139.738;2023-05-24T12:12:05;20.30;99.90
9414;DHT22;4746;35.664;139.738;2023-05-24T12:14:34;20.20;99.90
9414;DHT22;4746;35.664;139.738;2023-05-24T12:17:01;20.20;99.90
9414;DHT22;4746;35.664;139.738;2023-05-24T12:19:31;20.20;99.90
9414;DHT22;4746;35.664;139.738;2023-05-24T12:22:05;20.20;99.90
9414;DHT22;4746;35.664;139.738;2023-05-24T12:24:35;20.20;99.90
9414;DHT22;4746;35.664;139.738;2023-05-24T12:27:04;20.10;99.90
9414;DHT22;4746;35.664;139.738;2023-05-24T12:29:38;20.10;99.90
9414;DHT22;4746;35.664;139.738;2023-05-24T12:32:06;20.10;99.90
9414;DHT22;4746;35.664;139.738;2023-05-24T12:34:40;20.00;99.90
9414;DHT22;4746;35.664;139.738;2023-05-24T12:37:09;20.00;99.90
9414;DHT22;4746;35.664;139.738;2023-05-24T12:39:38;20.00;99.90
9414;DHT22;4746;35.664;139.738;2023-05-24T12:42:07;20.00;99.90
9414;DHT22;4746;35.664;139.738;2023-05-24T12:44:38;19.90;99.90
9414;DHT22;4746;35.664;139.738;2023-05-24T12:47:06;19.90;99.90
9414;DHT22;4746;35.664;139.738;2023-05-24T12:49:35;19.90;99.90
9414;DHT22;4746;35.664;139.738;2023-05-24T12:52:02;19.80;99.90
9414;DHT22;4746;35.664;139.738;2023-05-24T12:54:33;19.80;99.90
9414;DHT22;4746;35.664;139.738;2023-05-24T12:57:00;19.70;99.90
9414;DHT22;4746;35.664;139.738;2023-05-24T12:59:28;19.70;99.90
9414;DHT22;4746;35.664;139.738;2023-05-24T13:01:57;19.70;99.90
9414;DHT22;4746;35.664;139.738;2023-05-24T13:04:25;19.70;99.90
9414;DHT22;4746;35.664;139.738;2023-05-24T13:06:55;19.70;99.90
9414;DHT22;4746;35.664;139.738;2023-05-24T13:09:23;19.60;99.90
9414;DHT22;4746;35.664;139.738;2023-05-24T13:11:51;19.60;99.90
9414;DHT22;4746;35.664;139.738;2023-05-24T13:14:20;19.60;99.90
9414;DHT22;4746;35.664;139.738;2023-05-24T13:16:48;19.60;99.90
9414;DHT22;4746;35.664;139.738;2023-05-24T13:19:16;19.50;99.90
9414;DHT22;4746;35.664;139.738;2023-05-24T13:21:43;19.50;99.90
9414;DHT22;4746;35.664;139.738;2023-05-24T13:24:13;19.50;99.90
9414;DHT22;4746;35.664;139.738;2023-05-24T13:26:41;19.50;99.90
9414;DHT22;4746;35.664;139.738;2023-05-24T13:29:09;19.50;99.90
9414;DHT22;4746;35.664;139.738;2023-05-24T13:31:36;19.50;99.90
9414;DHT22;4746;35.664;139.738;2023-05-24T13:34:05;19.40;99.90
9414;DHT22;4746;35.664;139.738;2023-05-24T13:36:34;19.40;99.90
9414;DHT22;4746;35.664;139.738;2023-05-24T13:39:03;19.40;99.90
9414;DHT22;4746;35.664;139.738;2023-05-24T13:41:31;19.30;99.90
9414;DHT22;4746;35.664;139.738;2023-05-24T13:43:59;19.30;99.90
9414;DHT22;4746;35.664;139.738;2023-05-24T13:46:28;19.30;99.90
9414;DHT22;4746;35.664;139.738;2023-05-24T13:48:56;19.30;99.90
9414;DHT22;4746;35.664;139.738;2023-05-24T13:51:23;19.30;99.90
9414;DHT22;4746;35.664;139.738;2023-05-24T13:53:52;19.30;99.90
9414;DHT22;4746;35.664;139.738;2023-05-24T13:56:21;19.30;99.90
9414;DHT22;4746;35.664;139.738;2023-05-24T13:58:50;19.30;99.90
9414;DHT22;4746;35.664;139.738;2023-05-24T14:01:18;19.30;99.90
9414;DHT22;4746;35.664;139.738;2023-05-24T14:03:46;19.30;99.90
9414;DHT22;4746;35.664;139.738;2023-05-24T14:06:14;19.30;99.90
9414;DHT22;4746;35.664;139.738;2023-05-24T14:08:41;19.20;99.90
9414;DHT22;4746;35.664;139.738;2023-05-24T14:11:09;19.20;99.90
9414;DHT22;4746;35.664;139.738;2023-05-24T14:13:39;19.20;99.90
9414;DHT22;4746;35.664;139.738;2023-05-24T14:16:08;19.20;99.90
9414;DHT22;4746;35.664;139.738;2023-05-24T14:18:35;19.20;99.90
9414;DHT22;4746;35.664;139.738;2023-05-24T14:21:03;19.10;99.90
9414;DHT22;4746;35.664;139.738;2023-05-24T14:23:31;19.10;99.90
9414;DHT22;4746;35.664;139.738;2023-05-24T14:25:58;19.10;99.90
9414;DHT22;4746;35.664;139.738;2023-05-24T14:28:27;19.10;99.90
9414;DHT22;4746;35.664;139.738;2023-05-24T14:30:54;19.10;99.90
9414;DHT22;4746;35.664;139.738;2023-05-24T14:33:22;19.10;99.90
9414;DHT22;4746;35.664;139.738;2023-05-24T14:35:50;19.10;99.90
9414;DHT22;4746;35.664;139.738;2023-05-24T14:38:18;19.10;99.90
9414;DHT22;4746;35.664;139.738;2023-05-24T14:40:49;19.10;99.90
9414;DHT22;4746;35.664;139.738;2023-05-24T14:43:16;19.10;99.90
9414;DHT22;4746;35.664;139.738;2023-05-24T14:45:44;19.10;99.90
9414;DHT22;4746;35.664;139.738;2023-05-24T14:48:12;19.10;99.90
9414;DHT22;4746;35.664;139.738;2023-05-24T14:50:41;19.10;99.90
9414;DHT22;4746;35.664;139.738;2023-05-24T14:53:09;19.10;99.90
9414;DHT22;4746;35.664;139.738;2023-05-24T14:55:41;19.10;99.90
9414;DHT22;4746;35.664;139.738;2023-05-24T14:58:08;19.10;99.90
9414;DHT22;4746;35.664;139.738;2023-05-24T15:00:40;19.00;99.90
9414;DHT22;4746;35.664;139.738;2023-05-24T15:03:08;19.00;99.90
9414;DHT22;4746;35.664;139.738;2023-05-24T15:05:37;19.10;99.90
9414;DHT22;4746;35.664;139.738;2023-05-24T15:08:06;19.00;99.90
9414;DHT22;4746;35.664;139.738;2023-05-24T15:10:36;19.00;99.90
9414;DHT22;4746;35.664;139.738;2023-05-24T15:13:08;19.00;99.90
9414;DHT22;4746;35.664;139.738;2023-05-24T15:15:36;19.00;99.90
9414;DHT22;4746;35.664;139.738;2023-05-24T15:18:04;19.00;99.90
9414;DHT22;4746;35.664;139.738;2023-05-24T15:20:32;19.00;99.90
9414;DHT22;4746;35.664;139.738;2023-05-24T15:23:00;18.90;99.90
9414;DHT22;4746;35.664;139.738;2023-05-24T15:25:27;18.90;99.90
9414;DHT22;4746;35.664;139.738;2023-05-24T15:27:55;18.90;99.90
9414;DHT22;4746;35.664;139.738;2023-05-24T15:30:23;18.90;99.90
9414;DHT22;4746;35.664;139.738;2023-05-24T15:32:51;18.90;99.90
9414;DHT22;4746;35.664;139.738;2023-05-24T15:35:18;18.90;99.90
9414;DHT22;4746;35.664;139.738;2023-05-24T15:37:46;18.90;99.90
9414;DHT22;4746;35.664;139.738;2023-05-24T15:40:13;18.80;99.90
9414;DHT22;4746;35.664;139.738;2023-05-24T15:42:41;18.80;99.90
9414;DHT22;4746;35.664;139.738;2023-05-24T15:45:09;18.80;99.90
9414;DHT22;4746;35.664;139.738;2023-05-24T15:47:37;18.80;99.90
9414;DHT22;4746;35.664;139.738;2023-05-24T15:50:06;18.70;99.90
9414;DHT22;4746;35.664;139.738;2023-05-24T15:52:35;18.70;99.90
9414;DHT22;4746;35.664;139.738;2023-05-24T15:55:03;18.70;99.90
9414;DHT22;4746;35.664;139.738;2023-05-24T15:57:31;18.70;99.90
9414;DHT22;4746;35.664;139.738;2023-05-24T15:59:58;18.70;99.90
9414;DHT22;4746;35.664;139.738;2023-05-24T16:02:26;18.70;99.90
9414;DHT22;4746;35.664;139.738;2023-05-24T16:04:55;18.70;99.90
9414;DHT22;4746;35.664;139.738;2023-05-24T16:07:23;18.70;99.90
9414;DHT22;4746;35.664;139.738;2023-05-24T16:09:51;18.70;99.90